createdAt,value
2022-12-24T00:01:01.408Z,100211.50
2022-12-24T00:03:29.411Z,100215.88
2022-12-24T00:05:57.414Z,100217.78
2022-12-24T00:08:25.281Z,100218.81
2022-12-24T00:10:54.844Z,100225.09
2022-12-24T00:13:22.759Z,100225.91
2022-12-24T00:15:50.644Z,100237.84
2022-12-24T00:18:18.500Z,100241.38
2022-12-24T00:20:47.334Z,100242.22
2022-12-24T00:23:15.217Z,100241.16
2022-12-24T00:25:43.092Z,100239.13
2022-12-24T00:28:12.386Z,100243.88
2022-12-24T00:30:40.794Z,100242.69
2022-12-24T00:33:08.772Z,100242.22
2022-12-24T00:35:36.778Z,100257.66
2022-12-24T00:38:05.105Z,100244.09
2022-12-24T00:40:33.335Z,100232.41
2022-12-24T00:43:01.237Z,100247.66
2022-12-24T00:45:30.476Z,100236.78
2022-12-24T00:47:58.370Z,100254.13
2022-12-24T00:50:26.318Z,100251.19
2022-12-24T00:52:54.190Z,100262.88
2022-12-24T00:55:22.085Z,100272.91
2022-12-24T00:57:49.991Z,100284.59
2022-12-24T01:00:18.555Z,100282.34
2022-12-24T01:02:48.061Z,100277.50
2022-12-24T01:05:15.136Z,100269.38
2022-12-24T01:07:44.546Z,100272.91
2022-12-24T01:10:13.209Z,100278.34
2022-12-24T01:12:41.141Z,100273.75
2022-12-24T01:15:10.621Z,100290.03
2022-12-24T01:17:38.520Z,100283.78
2022-12-24T01:20:09.720Z,100297.34
2022-12-24T01:22:37.646Z,100300.91
2022-12-24T01:25:06.197Z,100310.94
2022-12-24T01:27:34.173Z,100300.38
2022-12-24T01:30:02.352Z,100328.06
2022-12-24T01:32:30.200Z,100313.66
2022-12-24T01:34:58.066Z,100316.38
2022-12-24T01:37:27.345Z,100322.63
2022-12-24T01:40:15.903Z,100322.84
2022-12-24T01:43:02.899Z,100323.09
2022-12-24T01:45:45.686Z,100322.00
2022-12-24T01:48:37.885Z,100323.88
2022-12-24T01:51:08.141Z,100327.44
2022-12-24T01:53:38.032Z,100327.69
2022-12-24T01:56:06.452Z,100323.88
2022-12-24T01:58:34.759Z,100313.13
2022-12-24T02:01:03.067Z,100327.69
2022-12-24T02:03:31.024Z,100332.28
2022-12-24T02:05:59.442Z,100333.13
2022-12-24T02:08:40.193Z,100343.16
2022-12-24T02:11:17.091Z,100346.44
2022-12-24T02:13:45.860Z,100338.56
2022-12-24T02:16:19.459Z,100189.59
2022-12-24T02:18:50.851Z,100331.53
2022-12-24T02:21:47.344Z,100351.28
2022-12-24T02:24:46.381Z,100352.13
2022-12-24T02:27:26.556Z,100356.72
2022-12-24T02:30:10.415Z,100370.53
2022-12-24T02:32:44.873Z,100365.09
2022-12-24T02:35:13.816Z,100359.72
2022-12-24T02:37:43.409Z,100368.84
2022-12-24T02:40:16.513Z,100357.84
2022-12-24T02:42:48.008Z,100382.44
2022-12-24T02:45:18.062Z,100274.53
2022-12-24T02:47:46.251Z,100379.72
2022-12-24T02:50:15.928Z,100391.41
2022-12-24T02:52:44.901Z,100392.25
2022-12-24T02:55:14.207Z,100392.25
2022-12-24T02:57:57.503Z,100390.34
2022-12-24T03:00:26.851Z,100400.16
2022-12-24T03:03:07.586Z,100398.72
2022-12-24T03:05:39.352Z,100396.84
2022-12-24T03:08:08.793Z,100399.56
2022-12-24T03:10:39.041Z,100383.09
2022-12-24T03:13:08.752Z,100398.50
2022-12-24T03:15:37.990Z,100387.28
2022-12-24T03:18:06.586Z,100399.34
2022-12-24T03:20:36.024Z,100401.22
2022-12-24T03:23:04.060Z,100404.78
2022-12-24T03:25:31.953Z,100406.66
2022-12-24T03:27:59.857Z,100407.69
2022-12-24T03:30:28.067Z,100399.78
2022-12-24T03:32:57.350Z,100409.59
2022-12-24T03:35:25.664Z,100410.63
2022-12-24T03:37:53.521Z,100416.91
2022-12-24T03:40:21.698Z,100409.84
2022-12-24T03:42:49.613Z,100409.84
2022-12-24T03:45:17.560Z,100418.78
2022-12-24T03:47:45.418Z,100421.28
2022-12-24T03:50:15.125Z,100416.91
2022-12-24T03:52:43.008Z,100411.72
2022-12-24T03:55:10.998Z,100424.22
2022-12-24T03:57:38.913Z,100432.34
2022-12-24T04:00:10.468Z,100420.69
2022-12-24T04:02:38.526Z,100432.34
2022-12-24T04:05:07.730Z,100425.03
2022-12-24T04:07:37.306Z,100427.38
2022-12-24T04:10:06.141Z,100434.25
2022-12-24T04:12:34.130Z,100422.41
2022-12-24T04:15:02.001Z,100443.00
2022-12-24T04:17:29.873Z,100447.38
2022-12-24T04:19:58.043Z,100441.94
2022-12-24T04:22:25.977Z,100445.50
2022-12-24T04:24:55.275Z,100447.38
2022-12-24T04:27:29.959Z,100452.81
2022-12-24T04:29:58.839Z,100454.47
2022-12-24T04:32:28.023Z,100454.47
2022-12-24T04:34:55.899Z,100455.53
2022-12-24T04:37:23.808Z,100447.38
2022-12-24T04:39:52.052Z,100465.34
2022-12-24T04:42:21.330Z,100464.72
2022-12-24T04:44:49.239Z,100467.00
2022-12-24T04:47:17.158Z,100462.63
2022-12-24T04:49:45.313Z,100459.28
2022-12-24T04:52:13.412Z,100473.50
2022-12-24T04:54:41.368Z,100471.59
2022-12-24T04:57:09.225Z,100480.34
2022-12-24T04:59:38.770Z,100484.09
2022-12-24T05:02:06.779Z,100480.34
2022-12-24T05:04:34.805Z,100476.78
2022-12-24T05:07:02.698Z,100477.63
2022-12-24T05:09:30.868Z,100488.50
2022-12-24T05:11:58.734Z,100483.06
2022-12-24T05:14:26.598Z,100494.97
2022-12-24T05:16:55.954Z,100496.63
2022-12-24T05:19:23.840Z,100499.34
2022-12-24T05:22:05.885Z,100499.34
2022-12-24T05:24:51.313Z,100498.31
2022-12-24T05:27:19.291Z,100500.41
2022-12-24T05:29:47.458Z,100501.22
2022-12-24T05:32:16.720Z,100509.38
2022-12-24T05:34:44.634Z,100508.53
2022-12-24T05:37:12.523Z,100505.03
2022-12-24T05:39:40.725Z,100513.97
2022-12-24T05:42:08.915Z,100514.81
2022-12-24T05:44:37.349Z,100507.50
2022-12-24T05:47:05.433Z,100513.75
2022-12-24T05:49:34.989Z,100500.19
2022-12-24T05:52:03.018Z,100517.31
2022-12-24T05:54:30.980Z,100509.16
2022-12-24T05:56:58.915Z,100512.94
2022-12-24T05:59:26.804Z,100518.16
2022-12-24T06:01:54.988Z,100518.16
2022-12-24T06:04:28.364Z,100517.31
2022-12-24T06:06:58.428Z,100525.47
2022-12-24T06:09:26.349Z,100531.72
2022-12-24T06:11:54.756Z,100523.56
2022-12-24T06:14:22.608Z,100528.16
2022-12-24T06:16:50.479Z,100538.00
2022-12-24T06:19:18.329Z,100545.31
2022-12-24T06:21:46.449Z,100549.69
2022-12-24T06:24:16.002Z,100544.25
2022-12-24T06:26:43.902Z,100546.13
2022-12-24T06:29:11.822Z,100551.56
2022-12-24T06:31:40.400Z,100546.75
2022-12-24T06:34:08.319Z,100553.25
2022-12-24T06:36:36.191Z,100549.47
2022-12-24T06:39:04.221Z,100558.44
2022-12-24T06:41:33.760Z,100542.38
2022-12-24T06:44:01.692Z,100555.72
2022-12-24T06:46:29.636Z,100558.44
2022-12-24T06:48:57.513Z,100562.81
2022-12-24T06:51:25.719Z,100572.84
2022-12-24T06:53:53.665Z,100576.38
2022-12-24T06:56:21.597Z,100577.22
2022-12-24T06:58:50.874Z,100592.69
2022-12-24T07:01:19.937Z,100596.22
2022-12-24T07:03:48.225Z,100602.50
2022-12-24T07:06:18.949Z,100583.53
2022-12-24T07:08:46.964Z,100593.53
2022-12-24T07:11:15.210Z,100588.09
2022-12-24T07:13:43.071Z,100582.66
2022-12-24T07:16:12.502Z,100588.91
2022-12-24T07:18:40.641Z,100596.22
2022-12-24T07:21:08.573Z,100593.53
2022-12-24T07:23:36.499Z,100589.13
2022-12-24T07:26:04.756Z,100592.69
2022-12-24T07:28:32.866Z,100596.22
2022-12-24T07:31:01.275Z,100607.09
2022-12-24T07:33:30.579Z,100615.25
2022-12-24T07:36:02.394Z,100618.78
2022-12-24T07:38:30.348Z,100621.50
2022-12-24T07:40:58.598Z,100619.84
2022-12-24T07:43:26.609Z,100628.00
2022-12-24T07:45:56.298Z,100624.44
2022-12-24T07:48:24.220Z,100631.75
2022-12-24T07:50:53.824Z,100636.97
2022-12-24T07:53:21.714Z,100644.53
2022-12-24T07:55:49.608Z,100645.34
2022-12-24T07:58:17.680Z,100645.34
2022-12-24T08:00:46.969Z,100647.25
2022-12-24T08:03:17.513Z,100640.81
2022-12-24T08:05:45.563Z,100651.84
2022-12-24T08:08:14.883Z,100650.75
2022-12-24T08:10:44.651Z,100647.66
2022-12-24T08:13:12.629Z,100654.31
2022-12-24T08:15:40.540Z,100664.34
2022-12-24T08:18:08.494Z,100666.00
2022-12-24T08:20:38.503Z,100667.91
2022-12-24T08:23:06.971Z,100670.59
2022-12-24T08:25:36.736Z,100678.75
2022-12-24T08:28:04.825Z,100682.31
2022-12-24T08:30:32.993Z,100676.88
2022-12-24T08:33:01.198Z,100672.94
2022-12-24T08:35:29.249Z,100681.47
2022-12-24T08:37:57.188Z,100679.59
2022-12-24T08:40:25.393Z,100685.03
2022-12-24T08:42:54.782Z,100684.19
2022-12-24T08:45:22.798Z,100689.41
2022-12-24T08:47:50.681Z,100689.63
2022-12-24T08:50:19.216Z,100691.28
2022-12-24T08:52:47.211Z,100685.84
2022-12-24T08:55:15.108Z,100688.56
2022-12-24T08:57:42.966Z,100691.28
2022-12-24T09:00:14.071Z,100695.88
2022-12-24T09:02:42.023Z,100707.59
2022-12-24T09:05:10.344Z,100701.31
2022-12-24T09:07:38.294Z,100710.31
2022-12-24T09:10:08.895Z,100713.84
2022-12-24T09:12:36.797Z,100718.44
2022-12-24T09:15:08.214Z,100720.97
2022-12-24T09:17:37.774Z,100721.16
2022-12-24T09:20:07.763Z,100724.72
2022-12-24T09:22:35.787Z,100724.53
2022-12-24T09:25:04.823Z,100740.81
2022-12-24T09:27:32.839Z,100750.84
2022-12-24T09:30:01.065Z,100746.44
2022-12-24T09:32:28.952Z,100745.22
2022-12-24T09:34:58.312Z,100756.47
2022-12-24T09:37:26.224Z,100771.09
2022-12-24T09:39:54.406Z,100769.47
2022-12-24T09:42:28.019Z,100773.81
2022-12-24T09:45:00.696Z,100792.81
2022-12-24T09:47:30.448Z,100798.06
2022-12-24T09:50:01.241Z,100808.06
2022-12-24T09:52:30.864Z,100799.09
2022-12-24T09:55:02.524Z,100798.06
2022-12-24T09:57:33.014Z,100760.97
2022-12-24T10:00:01.212Z,100781.75
2022-12-24T10:02:29.274Z,100788.88
2022-12-24T10:04:57.287Z,100795.13
2022-12-24T10:07:32.617Z,100801.59
2022-12-24T10:10:04.603Z,100797.84
2022-12-24T10:12:34.235Z,100746.78
2022-12-24T10:15:04.668Z,100798.88
2022-12-24T10:17:41.146Z,100804.94
2022-12-24T10:20:22.468Z,100804.75
2022-12-24T10:22:55.095Z,100803.09
2022-12-24T10:25:24.171Z,100802.06
2022-12-24T10:27:52.024Z,100814.97
2022-12-24T10:30:21.885Z,100811.44
2022-12-24T10:32:51.364Z,100813.09
2022-12-24T10:35:22.047Z,100809.97
2022-12-24T10:37:52.595Z,100819.34
2022-12-24T10:40:27.321Z,100818.53
2022-12-24T10:42:55.267Z,100820.41
2022-12-24T10:45:24.102Z,100814.13
2022-12-24T10:47:54.133Z,100815.19
2022-12-24T10:50:25.422Z,100825.00
2022-12-24T10:52:54.821Z,100816.22
2022-12-24T10:55:24.634Z,100818.09
2022-12-24T10:57:59.731Z,100763.91
2022-12-24T11:00:35.322Z,100808.06
2022-12-24T11:03:08.691Z,100809.13
2022-12-24T11:05:37.899Z,100807.47
2022-12-24T11:08:08.316Z,100808.28
2022-12-24T11:10:36.969Z,100804.75
2022-12-24T11:13:36.377Z,100812.06
2022-12-24T11:15:53.541Z,100815.63
2022-12-24T11:18:21.471Z,100811.25
2022-12-24T11:20:50.620Z,100810.41
2022-12-24T11:23:19.924Z,100804.97
2022-12-24T11:25:49.129Z,100801.84
2022-12-24T11:28:22.241Z,100805.19
2022-12-24T11:31:02.058Z,100807.06
2022-12-24T11:33:30.241Z,100802.91
2022-12-24T11:36:02.193Z,100814.16
2022-12-24T11:38:32.092Z,100813.31
2022-12-24T11:41:08.053Z,100795.81
2022-12-24T11:43:46.752Z,100809.56
2022-12-24T11:46:20.397Z,100813.13
2022-12-24T11:48:48.535Z,100808.53
2022-12-24T11:51:24.505Z,100807.69
2022-12-24T11:53:58.960Z,100792.28
2022-12-24T11:56:33.645Z,100807.91
2022-12-24T11:59:03.663Z,100807.69
2022-12-24T12:01:34.551Z,100806.84
2022-12-24T12:04:03.628Z,100794.97
2022-12-24T12:06:34.460Z,100721.38
2022-12-24T12:09:05.648Z,100805.19
2022-12-24T12:11:33.951Z,100806.00
2022-12-24T12:14:02.136Z,100813.72
2022-12-24T12:16:52.073Z,100812.69
2022-12-24T12:19:19.953Z,100809.34
2022-12-24T12:21:48.505Z,100807.47
2022-12-24T12:24:20.353Z,100818.34
2022-12-24T12:26:48.313Z,100821.66
2022-12-24T12:29:22.560Z,100821.06
2022-12-24T12:31:50.867Z,100825.41
2022-12-24T12:34:20.094Z,100828.13
2022-12-24T12:36:49.787Z,100833.56
2022-12-24T12:39:19.090Z,100833.81
2022-12-24T12:41:52.187Z,100839.00
2022-12-24T12:44:29.252Z,100835.25
2022-12-24T12:47:07.834Z,100837.13
2022-12-24T12:49:40.798Z,100844.44
2022-12-24T12:52:13.648Z,100849.88
2022-12-24T12:54:52.431Z,100773.13
2022-12-24T12:57:21.532Z,100852.38
2022-12-24T12:59:51.798Z,100856.97
2022-12-24T13:02:39.589Z,100857.19
2022-12-24T13:05:54.972Z,100840.88
2022-12-24T13:08:46.478Z,100849.88
2022-12-24T13:11:25.445Z,100855.28
2022-12-24T13:14:01.831Z,100862.59
2022-12-24T13:16:43.193Z,100865.56
2022-12-24T13:19:18.402Z,100862.59
2022-12-24T13:21:48.802Z,100863.44
2022-12-24T13:24:17.844Z,100872.44
2022-12-24T13:27:01.645Z,100862.59
2022-12-24T13:29:41.902Z,100865.13
2022-12-24T13:32:55.085Z,100863.44
2022-12-24T13:35:59.036Z,100853.66
2022-12-24T13:38:35.966Z,100860.97
2022-12-24T13:41:51.598Z,100865.56
2022-12-24T13:44:33.758Z,100872.88
2022-12-24T13:47:26.853Z,100873.72
2022-12-24T13:49:59.934Z,100873.72
2022-12-24T13:52:30.084Z,100884.34
2022-12-24T13:55:15.787Z,100881.63
2022-12-24T13:57:47.975Z,100889.56
2022-12-24T14:00:35.115Z,100875.59
2022-12-24T14:03:05.915Z,100879.75
2022-12-24T14:05:35.537Z,100886.00
2022-12-24T14:08:04.359Z,100882.47
2022-12-24T14:10:33.323Z,100896.03
2022-12-24T14:13:02.674Z,100900.44
2022-12-24T14:16:03.462Z,100894.16
2022-12-24T14:18:36.515Z,100909.63
2022-12-24T14:21:04.473Z,100895.19
2022-12-24T14:23:49.341Z,100895.00
2022-12-24T14:26:18.018Z,100892.28
2022-12-24T14:28:48.712Z,100898.53
2022-12-24T14:31:18.052Z,100900.44
2022-12-24T14:33:45.980Z,100901.25
2022-12-24T14:36:14.919Z,100886.44
2022-12-24T14:38:43.450Z,100909.41
2022-12-24T14:41:19.621Z,100904.81
2022-12-24T14:43:53.155Z,100913.81
2022-12-24T14:46:24.926Z,100918.41
2022-12-24T14:48:54.535Z,100918.41
2022-12-24T14:51:25.183Z,100928.22
2022-12-24T14:54:06.772Z,100932.81
2022-12-24T14:56:34.721Z,100943.69
2022-12-24T14:59:15.074Z,100935.53
2022-12-24T15:01:43.069Z,100946.41
2022-12-24T15:04:16.603Z,100945.56
2022-12-24T15:06:47.889Z,100932.41
2022-12-24T15:09:18.556Z,100936.56
2022-12-24T15:11:47.259Z,100940.97
2022-12-24T15:14:16.546Z,100942.84
2022-12-24T15:16:44.540Z,100959.16
2022-12-24T15:19:14.893Z,100875.44
2022-12-24T15:21:44.202Z,100970.84
2022-12-24T15:24:25.209Z,100981.72
2022-12-24T15:26:53.117Z,100984.44
2022-12-24T15:29:24.831Z,100985.25
2022-12-24T15:31:56.431Z,100979.00
2022-12-24T15:34:28.332Z,100983.38
2022-12-24T15:37:02.655Z,100987.16
2022-12-24T15:39:30.807Z,100994.88
2022-12-24T15:42:18.536Z,100992.78
2022-12-24T15:44:51.845Z,100996.53
2022-12-24T15:47:21.834Z,100966.50
2022-12-24T15:49:51.177Z,100993.00
2022-12-24T15:52:19.564Z,101002.19
2022-12-24T15:54:53.682Z,101004.06
2022-12-24T15:57:26.349Z,101004.06
2022-12-24T15:59:57.378Z,101013.06
2022-12-24T16:02:37.458Z,101015.78
2022-12-24T16:05:34.426Z,101010.94
2022-12-24T16:08:09.942Z,101018.06
2022-12-24T16:10:40.072Z,101009.91
2022-12-24T16:13:16.004Z,101004.47
2022-12-24T16:15:51.097Z,100997.16
2022-12-24T16:18:21.025Z,101000.72
2022-12-24T16:20:50.366Z,100997.16
2022-12-24T16:23:19.705Z,100996.13
2022-12-24T16:25:47.564Z,101000.72
2022-12-24T16:28:21.943Z,101000.09
2022-12-24T16:30:55.575Z,101000.94
2022-12-24T16:33:24.208Z,100997.16
2022-12-24T16:35:52.093Z,101003.25
2022-12-24T16:38:19.990Z,100998.84
2022-12-24T16:40:48.262Z,100994.25
2022-12-24T16:43:33.671Z,101000.53
2022-12-24T16:46:03.567Z,100997.16
2022-12-24T16:48:34.275Z,100997.16
2022-12-24T16:51:02.426Z,101000.09
2022-12-24T16:53:30.318Z,100998.41
2022-12-24T16:55:58.269Z,101009.06
2022-12-24T16:58:26.188Z,101006.56
2022-12-24T17:00:54.103Z,101005.53
2022-12-24T17:03:23.584Z,101014.31
2022-12-24T17:05:51.683Z,101018.06
2022-12-24T17:08:19.564Z,101016.19
2022-12-24T17:10:51.653Z,101028.28
2022-12-24T17:13:19.583Z,101032.47
2022-12-24T17:15:47.725Z,101035.19
2022-12-24T17:18:15.662Z,101035.19
2022-12-24T17:20:45.178Z,101037.91
2022-12-24T17:23:13.399Z,101032.47
2022-12-24T17:25:41.291Z,101036.88
2022-12-24T17:28:09.187Z,101027.69
2022-12-24T17:30:37.382Z,101024.97
2022-12-24T17:33:10.889Z,101026.84
2022-12-24T17:35:42.140Z,101023.06
2022-12-24T17:38:11.469Z,101022.25
2022-12-24T17:40:39.634Z,101031.22
2022-12-24T17:43:07.535Z,101032.03
2022-12-24T17:45:35.487Z,101035.00
2022-12-24T17:48:03.384Z,101039.59
2022-12-24T17:50:31.541Z,101022.66
2022-12-24T17:52:59.512Z,101022.25
2022-12-24T17:55:28.825Z,101030.41
2022-12-24T17:57:56.750Z,101025.78
2022-12-24T18:00:29.535Z,101027.69
2022-12-24T18:03:00.911Z,101021.41
2022-12-24T18:05:28.927Z,101032.03
2022-12-24T18:07:56.834Z,101039.16
2022-12-24T18:10:24.995Z,101025.59
2022-12-24T18:12:54.322Z,101051.28
2022-12-24T18:15:22.436Z,101061.53
2022-12-24T18:37:19.856Z,101040.44
2022-12-24T18:39:48.169Z,101040.63
2022-12-24T18:42:16.157Z,101040.63
2022-12-24T18:44:44.461Z,101031.03
2022-12-24T18:47:12.429Z,101033.31
2022-12-24T18:49:40.476Z,101038.53
2022-12-24T18:52:09.273Z,101049.22
2022-12-24T18:54:38.865Z,101052.97
2022-12-24T18:57:06.777Z,101048.13
2022-12-24T18:59:36.527Z,101023.53
2022-12-24T19:02:04.691Z,101040.84
2022-12-24T19:04:32.918Z,101037.06
2022-12-24T19:07:01.204Z,101042.50
2022-12-24T19:09:29.109Z,101043.34
2022-12-24T19:11:58.419Z,101035.19
2022-12-24T19:14:26.322Z,101023.09
2022-12-24T19:16:54.593Z,101030.81
2022-12-24T19:19:24.038Z,101039.78
2022-12-24T19:21:52.111Z,101043.34
2022-12-24T19:24:20.373Z,101043.34
2022-12-24T19:26:48.795Z,101046.06
2022-12-24T19:29:18.095Z,101036.25
2022-12-24T19:31:47.497Z,101036.25
2022-12-24T19:34:15.569Z,101039.59
2022-12-24T19:36:43.747Z,101036.88
2022-12-24T19:39:11.657Z,101036.25
2022-12-24T19:41:39.573Z,101042.50
2022-12-24T19:44:07.525Z,101048.78
2022-12-24T19:46:38.051Z,101051.69
2022-12-24T19:49:07.601Z,101051.50
2022-12-24T19:51:35.497Z,101050.66
2022-12-24T19:54:03.582Z,101055.25
2022-12-24T19:56:32.333Z,101048.78
2022-12-24T19:59:00.860Z,101042.09
2022-12-24T20:01:30.016Z,101053.38
2022-12-24T20:03:59.533Z,101050.66
2022-12-24T20:06:28.673Z,101051.50
2022-12-24T20:09:00.015Z,101055.06
2022-12-24T20:11:27.948Z,101056.09
2022-12-24T20:13:57.689Z,101048.97
2022-12-24T20:16:25.759Z,101056.94
2022-12-24T20:18:53.789Z,101069.47
2022-12-24T20:21:23.150Z,101074.66
2022-12-24T20:23:51.104Z,101081.19
2022-12-24T20:26:20.463Z,101080.34
2022-12-24T20:28:48.838Z,101081.19
2022-12-24T20:31:17.574Z,101073.03
2022-12-24T20:33:45.918Z,101074.66
2022-12-24T20:36:15.894Z,101073.88
2022-12-24T20:38:45.198Z,101076.59
2022-12-24T20:41:13.993Z,101072.19
2022-12-24T20:43:47.766Z,101075.75
2022-12-24T20:46:16.561Z,101083.91
2022-12-24T20:48:44.658Z,101086.59
2022-12-24T20:51:21.003Z,101082.00
2022-12-24T20:53:52.956Z,101083.06
2022-12-24T20:56:21.433Z,101093.09
2022-12-24T20:58:49.351Z,101088.50
2022-12-24T21:01:18.167Z,101086.81
2022-12-24T21:03:46.190Z,101079.50
2022-12-24T21:06:15.615Z,101086.81
2022-12-24T21:08:43.870Z,101095.78
2022-12-24T21:11:38.910Z,101095.78
2022-12-24T21:14:06.863Z,101103.09
2022-12-24T21:16:35.049Z,101101.44
2022-12-24T21:19:02.971Z,101095.38
2022-12-24T21:21:30.891Z,101101.22
2022-12-24T21:23:59.000Z,101111.25
2022-12-24T21:26:29.150Z,101098.72
2022-12-24T21:28:57.257Z,101093.09
2022-12-24T21:31:25.210Z,101085.97
2022-12-24T21:33:53.161Z,101085.97
2022-12-24T21:36:21.103Z,101093.09
2022-12-24T21:38:49.073Z,101086.81
2022-12-24T21:41:18.382Z,101096.84
2022-12-24T21:43:47.843Z,101088.69
2022-12-24T21:46:17.417Z,101088.03
2022-12-24T21:49:17.307Z,101099.34
2022-12-24T21:51:46.834Z,101115.66
2022-12-24T21:54:30.678Z,101105.81
2022-12-24T21:57:17.182Z,101097.66
2022-12-24T21:59:46.479Z,101087.84
2022-12-24T22:02:15.052Z,101085.97
2022-12-24T22:04:43.385Z,101080.53
2022-12-24T22:07:36.964Z,101074.25
2022-12-24T22:10:22.811Z,101067.16
2022-12-24T22:12:50.752Z,101074.25
2022-12-24T22:15:20.231Z,101069.88
2022-12-24T22:17:48.219Z,101063.41
2022-12-24T22:20:16.282Z,101043.53
2022-12-24T22:22:44.536Z,101046.50
2022-12-24T22:25:12.447Z,101047.09
2022-12-24T22:27:40.412Z,101057.13
2022-12-24T22:30:10.889Z,101065.28
2022-12-24T22:32:40.251Z,101047.31
2022-12-24T22:35:08.995Z,101047.09
2022-12-24T22:37:36.929Z,101031.84
2022-12-24T22:40:05.285Z,101032.69
2022-12-24T22:42:33.856Z,101036.25
2022-12-24T22:45:01.743Z,101029.97
2022-12-24T22:47:29.999Z,101026.41
2022-12-24T22:49:59.254Z,101028.09
2022-12-24T22:52:27.164Z,101034.56
2022-12-24T22:54:55.121Z,101032.69
2022-12-24T22:57:23.012Z,101038.13
2022-12-24T22:59:51.008Z,101031.00
2022-12-24T23:02:25.700Z,101031.66
2022-12-24T23:04:56.122Z,101030.81
2022-12-24T23:07:25.452Z,101026.41
2022-12-24T23:09:53.336Z,101017.22
2022-12-24T23:12:41.561Z,101004.69
2022-12-24T23:15:09.723Z,100988.38
2022-12-24T23:17:37.668Z,100991.09
2022-12-24T23:20:06.424Z,101001.38
2022-12-24T23:22:35.709Z,100997.81
2022-12-24T23:25:03.929Z,100987.97
2022-12-24T23:27:31.844Z,100983.38
2022-12-24T23:29:59.746Z,100989.66
2022-12-24T23:32:27.655Z,100998.66
2022-12-24T23:34:55.889Z,101004.91
2022-12-24T23:37:26.987Z,101003.25
2022-12-24T23:40:00.450Z,101005.97
2022-12-24T23:42:28.361Z,101004.06
2022-12-24T23:44:56.302Z,101011.38
2022-12-24T23:47:24.215Z,101022.25
2022-12-24T23:49:52.112Z,101016.81
2022-12-24T23:52:20.007Z,101021.63
2022-12-24T23:54:47.965Z,101017.84
2022-12-24T23:57:17.234Z,101022.44
2022-12-24T23:59:45.483Z,101021.63
